createdAt,value
2017-04-15T00:00:44.798Z,17.4
2017-04-15T00:01:47.012Z,17.8
2017-04-15T00:02:48.816Z,17.1
2017-04-15T00:03:50.635Z,17.3
2017-04-15T00:04:52.451Z,16.9
2017-04-15T00:05:54.272Z,17.2
2017-04-15T00:06:56.070Z,17.3
2017-04-15T00:07:57.887Z,17.3
2017-04-15T00:09:00.049Z,16.5
2017-04-15T00:10:02.227Z,17.6
2017-04-15T00:11:04.037Z,17.4
2017-04-15T00:12:05.846Z,17.6
2017-04-15T00:13:07.655Z,17.6
2017-04-15T00:14:09.999Z,17.3
2017-04-15T00:15:11.922Z,17.7
2017-04-15T00:16:13.740Z,18.1
2017-04-15T00:17:15.559Z,17.8
2017-04-15T00:18:17.718Z,18.1
2017-04-15T00:19:19.883Z,17.8
2017-04-15T00:20:21.696Z,17.4
2017-04-15T00:21:23.508Z,18
2017-04-15T00:22:25.323Z,17.5
2017-04-15T00:23:27.136Z,17.4
2017-04-15T00:24:29.013Z,17.3
2017-04-15T00:25:30.823Z,17.7
2017-04-15T00:26:32.633Z,18.5
2017-04-15T00:27:34.597Z,16.7
2017-04-15T00:28:36.423Z,17.1
2017-04-15T00:29:38.239Z,17.3
2017-04-15T00:30:40.049Z,17.8
2017-04-15T00:31:41.866Z,17.3
2017-04-15T00:32:43.677Z,17.5
2017-04-15T00:33:45.496Z,17.5
2017-04-15T00:34:47.340Z,17.2
2017-04-15T00:35:49.151Z,17.2
2017-04-15T00:36:50.989Z,16.9
2017-04-15T00:37:52.807Z,17.5
2017-04-15T00:38:54.665Z,18.3
2017-04-15T00:39:56.470Z,17.8
2017-04-15T00:40:58.475Z,17.4
2017-04-15T00:42:00.290Z,18.2
2017-04-15T00:43:02.439Z,17.4
2017-04-15T00:44:04.256Z,17.6
2017-04-15T00:45:06.070Z,16.7
2017-04-15T00:46:08.229Z,17.6
2017-04-15T00:47:10.053Z,17.2
2017-04-15T00:48:11.855Z,17.7
2017-04-15T00:49:14.052Z,18
2017-04-15T00:50:15.863Z,16.9
2017-04-15T00:51:17.686Z,17.5
2017-04-15T00:53:22.685Z,17.5
2017-04-15T00:54:24.498Z,17.6
2017-04-15T00:55:26.300Z,17.4
2017-04-15T00:56:28.121Z,17.9
2017-04-15T00:57:30.261Z,17.8
2017-04-15T00:58:32.764Z,17.6
2017-04-15T00:59:34.588Z,17.4
2017-04-15T01:00:36.402Z,17.1
2017-04-15T01:01:38.211Z,17.2
2017-04-15T01:02:40.375Z,17.2
2017-04-15T01:03:42.881Z,17.1
2017-04-15T01:04:45.037Z,17.2
2017-04-15T01:05:46.861Z,17.4
2017-04-15T01:06:49.081Z,17.5
2017-04-15T01:07:51.240Z,17.1
2017-04-15T01:08:53.058Z,17.3
2017-04-15T01:09:54.866Z,17.7
2017-04-15T01:10:56.676Z,17.2
2017-04-15T01:11:58.486Z,16.3
2017-04-15T01:13:00.636Z,17.8
2017-04-15T01:14:02.785Z,17.3
2017-04-15T01:15:04.597Z,17.7
2017-04-15T01:16:06.762Z,17.3
2017-04-15T01:17:08.600Z,16.9
2017-04-15T01:18:10.432Z,16.9
2017-04-15T01:19:12.929Z,17.3
2017-04-15T01:20:14.747Z,16.7
2017-04-15T01:21:16.555Z,17.5
2017-04-15T01:22:18.714Z,17.3
2017-04-15T01:23:20.531Z,17.2
2017-04-15T01:24:22.683Z,17.7
2017-04-15T01:25:24.492Z,16.9
2017-04-15T01:26:26.323Z,17.4
2017-04-15T01:27:28.130Z,17.5
2017-04-15T01:28:29.939Z,16.8
2017-04-15T01:29:31.741Z,16.5
2017-04-15T01:30:33.557Z,16.9
2017-04-15T01:31:35.367Z,17.7
2017-04-15T01:32:37.856Z,17.3
2017-04-15T01:33:39.668Z,16.9
2017-04-15T01:34:41.482Z,17.2
2017-04-15T01:35:43.292Z,17.4
2017-04-15T01:36:45.105Z,16.9
2017-04-15T01:37:46.910Z,16.9
2017-04-15T01:38:49.061Z,16.9
2017-04-15T01:39:51.215Z,17.8
2017-04-15T01:40:53.036Z,17.8
2017-04-15T01:41:54.845Z,17.3
2017-04-15T01:42:56.660Z,16.6
2017-04-15T01:43:58.476Z,17.5
2017-04-15T01:45:00.297Z,17.6
2017-04-15T01:46:02.101Z,17.8
2017-04-15T01:47:03.923Z,17.2
2017-04-15T01:48:05.737Z,16.8
2017-04-15T01:49:07.558Z,17.3
2017-04-15T01:50:09.368Z,17.4
2017-04-15T01:51:11.178Z,18.4
2017-04-15T01:52:13.328Z,17.9
2017-04-15T01:53:15.145Z,18.2
2017-04-15T01:54:16.970Z,17.8
2017-04-15T01:55:18.815Z,18
2017-04-15T01:56:20.638Z,18.2
2017-04-15T01:57:22.451Z,17.5
2017-04-15T01:58:24.594Z,17.9
2017-04-15T01:59:26.760Z,17.5
2017-04-15T02:00:28.569Z,17.5
2017-04-15T02:01:30.385Z,17.9
2017-04-15T02:02:32.188Z,17.5
2017-04-15T02:03:34.023Z,17.8
2017-04-15T02:04:35.832Z,17.6
2017-04-15T02:05:37.974Z,18
2017-04-15T02:06:39.782Z,18.2
2017-04-15T02:07:42.266Z,17.6
2017-04-15T02:08:44.077Z,17.7
2017-04-15T02:09:46.367Z,17.3
2017-04-15T02:10:48.581Z,17.1
2017-04-15T02:11:50.725Z,17.9
2017-04-15T02:12:52.882Z,17.6
2017-04-15T02:13:54.700Z,17.4
2017-04-15T02:14:56.503Z,17.9
2017-04-15T02:15:58.317Z,17.7
2017-04-15T02:17:00.134Z,17.9
2017-04-15T02:18:01.948Z,17.7
2017-04-15T02:19:03.772Z,17.4
2017-04-15T02:20:05.581Z,17.8
2017-04-15T02:21:07.395Z,17.6
2017-04-15T02:22:09.221Z,16.9
2017-04-15T02:23:11.119Z,16.9
2017-04-15T02:24:13.275Z,16.9
2017-04-15T02:25:15.088Z,17.7
2017-04-15T02:26:16.914Z,17.8
2017-04-15T02:27:18.716Z,17.6
2017-04-15T02:28:20.860Z,17.9
2017-04-15T02:29:23.005Z,17.3
2017-04-15T02:30:25.158Z,18
2017-04-15T02:31:26.985Z,17.2
2017-04-15T02:32:28.795Z,16.9
2017-04-15T02:33:30.626Z,17.3
2017-04-15T02:34:32.436Z,17.4
2017-04-15T02:35:34.614Z,17.7
2017-04-15T02:36:36.433Z,17.1
2017-04-15T02:37:38.245Z,17.1
2017-04-15T02:38:40.058Z,17.4
2017-04-15T02:39:41.866Z,17
2017-04-15T02:40:44.032Z,17.5
2017-04-15T02:41:45.840Z,18.1
2017-04-15T02:42:47.653Z,17.4
2017-04-15T02:43:49.804Z,17.1
2017-04-15T02:44:51.613Z,17.6
2017-04-15T02:45:53.421Z,16.9
2017-04-15T02:46:55.580Z,17.1
2017-04-15T02:47:57.954Z,16.2
2017-04-15T02:49:00.461Z,16.5
2017-04-15T02:50:02.609Z,16.7
2017-04-15T02:51:04.419Z,16.7
2017-04-15T02:52:06.237Z,16.6
2017-04-15T02:53:08.394Z,17
2017-04-15T02:54:10.214Z,17
2017-04-15T02:55:12.030Z,17.1
2017-04-15T02:56:13.851Z,16.5
2017-04-15T02:57:15.658Z,16.9
2017-04-15T02:58:17.810Z,17.4
2017-04-15T02:59:19.631Z,16.6
2017-04-15T03:00:21.433Z,16.6
2017-04-15T03:01:23.246Z,16.8
2017-04-15T03:02:25.060Z,17.2
2017-04-15T03:03:27.217Z,17.1
2017-04-15T03:04:29.366Z,17.7
2017-04-15T03:05:31.518Z,17.3
2017-04-15T03:06:33.333Z,17.3
2017-04-15T03:07:35.148Z,17.8
2017-04-15T03:08:36.970Z,17.7
2017-04-15T03:09:39.117Z,17
2017-04-15T03:10:41.262Z,17.3
2017-04-15T03:11:43.085Z,17.2
2017-04-15T03:12:44.946Z,17.7
2017-04-15T03:13:47.106Z,18.1
2017-04-15T03:14:49.253Z,17.3
2017-04-15T03:15:51.069Z,16.9
2017-04-15T03:16:52.882Z,16.7
2017-04-15T03:17:54.691Z,17
2017-04-15T03:18:56.509Z,16.8
2017-04-15T03:19:58.319Z,16.8
2017-04-15T03:21:00.133Z,17.3
2017-04-15T03:22:01.959Z,17.3
2017-04-15T03:23:04.106Z,17.5
2017-04-15T03:24:06.610Z,17.4
2017-04-15T03:25:08.609Z,16.4
2017-04-15T03:26:10.429Z,16.3
2017-04-15T03:27:12.246Z,16.6
2017-04-15T03:28:14.060Z,16.7
2017-04-15T03:29:15.872Z,17.1
2017-04-15T03:30:17.685Z,16.7
2017-04-15T03:31:19.496Z,16.6
2017-04-15T03:32:21.307Z,16.8
2017-04-15T03:33:23.108Z,16.7
2017-04-15T03:34:24.919Z,16.9
2017-04-15T03:35:27.071Z,16.7
2017-04-15T03:36:29.376Z,16.4
2017-04-15T03:37:31.240Z,17
2017-04-15T03:38:33.749Z,17.4
2017-04-15T03:39:35.565Z,17
2017-04-15T03:40:37.378Z,16.7
2017-04-15T03:41:39.187Z,16.8
2017-04-15T03:42:41.002Z,17.2
2017-04-15T03:43:43.495Z,17.1
2017-04-15T03:44:45.659Z,16.6
2017-04-15T03:45:47.478Z,16.5
2017-04-15T03:46:49.289Z,16.4
2017-04-15T03:47:51.106Z,16.9
2017-04-15T03:48:53.255Z,16.4
2017-04-15T03:49:55.144Z,17
2017-04-15T03:50:56.955Z,17.3
2017-04-15T03:51:58.765Z,17.5
2017-04-15T03:53:00.912Z,16.9
2017-04-15T03:54:02.727Z,17.2
2017-04-15T03:55:04.884Z,17.1
2017-04-15T03:56:06.694Z,16.9
2017-04-15T03:57:08.501Z,16.7
2017-04-15T03:58:10.326Z,16.4
2017-04-15T03:59:12.812Z,16.8
2017-04-15T04:00:14.625Z,17
2017-04-15T04:01:16.608Z,17.2
2017-04-15T04:02:18.428Z,16.6
2017-04-15T04:03:20.246Z,16.9
2017-04-15T04:04:22.063Z,17.3
2017-04-15T04:05:24.225Z,17.9
2017-04-15T04:06:26.030Z,16.5
2017-04-15T04:07:27.871Z,16.7
2017-04-15T04:08:30.019Z,16.5
2017-04-15T04:09:31.839Z,17.3
2017-04-15T04:10:33.641Z,17
2017-04-15T04:11:35.786Z,16.2
2017-04-15T04:12:38.373Z,16.1
2017-04-15T04:13:40.583Z,16.5
2017-04-15T04:14:42.406Z,16.5
2017-04-15T04:15:44.216Z,17.1
2017-04-15T04:16:46.377Z,16.5
2017-04-15T04:17:48.201Z,16.6
2017-04-15T04:18:50.016Z,16
2017-04-15T04:19:51.824Z,16.2
2017-04-15T04:20:53.638Z,16.9
2017-04-15T04:21:55.457Z,16.8
2017-04-15T04:22:57.268Z,17.5
2017-04-15T04:23:59.422Z,16.6
2017-04-15T04:25:01.338Z,16.7
2017-04-15T04:26:03.156Z,17.2
2017-04-15T04:27:04.987Z,17.5
2017-04-15T04:28:07.131Z,16.8
2017-04-15T04:29:08.958Z,17
2017-04-15T04:30:10.771Z,17.5
2017-04-15T04:31:12.641Z,16.9
2017-04-15T04:32:14.834Z,17.1
2017-04-15T04:33:16.643Z,17.5
2017-04-15T04:34:18.476Z,17.3
2017-04-15T04:35:20.305Z,16.8
2017-04-15T04:36:22.250Z,17.1
2017-04-15T04:37:24.286Z,16.6
2017-04-15T04:38:26.131Z,16.7
2017-04-15T04:39:27.981Z,16.7
2017-04-15T04:40:29.931Z,16.8
2017-04-15T04:41:31.792Z,16.9
2017-04-15T04:42:33.622Z,16.8
2017-04-15T04:43:35.490Z,16.9
2017-04-15T04:44:37.322Z,16.5
2017-04-15T04:45:39.496Z,16.4
2017-04-15T04:46:41.419Z,17
2017-04-15T04:47:43.233Z,17
2017-04-15T04:48:45.750Z,16.5
2017-04-15T04:49:47.565Z,16.6
2017-04-15T04:50:49.831Z,16.7
2017-04-15T04:51:51.640Z,16.8
2017-04-15T04:52:53.537Z,16.4
2017-04-15T04:53:55.375Z,16.5
2017-04-15T04:54:57.202Z,17.2
2017-04-15T04:55:59.087Z,16.3
2017-04-15T04:57:01.235Z,16.4
2017-04-15T04:58:03.053Z,15.7
2017-04-15T04:59:05.221Z,16.7
2017-04-15T05:00:07.042Z,16.9
2017-04-15T05:01:09.007Z,16.8
2017-04-15T05:02:10.822Z,17.4
2017-04-15T05:03:12.979Z,16.7
2017-04-15T05:04:14.801Z,17.1
2017-04-15T05:05:16.610Z,16.1
2017-04-15T05:06:18.426Z,16.8
2017-04-15T05:07:20.231Z,16.6
2017-04-15T05:08:22.399Z,16.9
2017-04-15T05:09:24.278Z,16.2
2017-04-15T05:10:26.092Z,16.5
2017-04-15T05:11:27.911Z,16.4
2017-04-15T05:12:29.778Z,16.3
2017-04-15T05:13:31.593Z,16.1
2017-04-15T05:14:33.400Z,16.3
2017-04-15T05:15:35.212Z,17.2
2017-04-15T05:16:37.020Z,16.3
2017-04-15T05:17:39.518Z,16.8
2017-04-15T05:18:41.664Z,16.6
2017-04-15T05:19:44.228Z,16.5
2017-04-15T05:20:46.069Z,16.3
2017-04-15T05:21:47.886Z,16.2
2017-04-15T05:22:49.698Z,16.7
2017-04-15T05:23:51.914Z,16.7
2017-04-15T05:24:54.292Z,16.1
2017-04-15T05:25:56.180Z,15.8
2017-04-15T05:26:57.986Z,16.4
2017-04-15T05:27:59.808Z,16.9
2017-04-15T05:29:01.611Z,16.3
2017-04-15T05:30:03.434Z,16.2
2017-04-15T05:31:05.449Z,16.7
2017-04-15T05:32:07.259Z,16.2
2017-04-15T05:33:09.072Z,16.1
2017-04-15T05:34:10.879Z,16.6
2017-04-15T05:35:12.699Z,16
2017-04-15T05:36:14.500Z,16
2017-04-15T05:37:16.485Z,15.9
2017-04-15T05:38:18.535Z,16
2017-04-15T05:39:20.701Z,15.7
2017-04-15T05:40:22.505Z,15.6
2017-04-15T05:41:24.327Z,15.6
2017-04-15T05:42:26.141Z,16.4
2017-04-15T05:43:27.957Z,16.2
2017-04-15T05:44:30.116Z,15.5
2017-04-15T05:45:31.925Z,15.8
2017-04-15T05:46:33.744Z,16.3
2017-04-15T05:47:35.554Z,15.6
2017-04-15T05:48:37.366Z,16.3
2017-04-15T05:49:39.274Z,16.5
2017-04-15T05:50:41.097Z,15.4
2017-04-15T05:51:43.244Z,16.2
2017-04-15T05:52:45.398Z,16.1
2017-04-15T05:53:47.316Z,16
2017-04-15T05:54:49.477Z,16.1
2017-04-15T05:55:51.426Z,16
2017-04-15T05:56:53.574Z,15.8
2017-04-15T05:57:55.578Z,16.3
2017-04-15T05:58:57.736Z,16.3
2017-04-15T05:59:59.897Z,16.3
2017-04-15T06:01:02.043Z,16.2
2017-04-15T06:02:04.000Z,15.7
2017-04-15T06:03:05.810Z,16.2
2017-04-15T06:04:07.630Z,16.8
2017-04-15T06:05:09.445Z,16.6
2017-04-15T06:06:11.389Z,16.7
2017-04-15T06:07:13.313Z,16
2017-04-15T06:08:15.126Z,16.2
2017-04-15T06:09:16.941Z,16.2
2017-04-15T06:10:19.032Z,16.6
2017-04-15T06:11:20.844Z,16.5
2017-04-15T06:12:22.657Z,17.2
2017-04-15T06:13:24.467Z,16.4
2017-04-15T06:14:26.315Z,16.9
2017-04-15T06:15:28.116Z,16.8
2017-04-15T06:16:30.266Z,16.5
2017-04-15T06:17:32.240Z,16.3
2017-04-15T06:18:34.269Z,16.6
2017-04-15T06:19:36.079Z,16.8
2017-04-15T06:20:38.241Z,16
2017-04-15T06:21:40.058Z,16.8
2017-04-15T06:22:41.864Z,16.4
2017-04-15T06:23:44.355Z,16.5
2017-04-15T06:24:46.519Z,16.9
2017-04-15T06:25:48.333Z,16.2
2017-04-15T06:26:50.132Z,16.4
2017-04-15T06:27:52.144Z,17.3
2017-04-15T06:28:53.956Z,16.5
2017-04-15T06:29:59.563Z,16.8
2017-04-15T06:31:01.606Z,16.7
2017-04-15T06:32:03.423Z,17.6
2017-04-15T06:33:05.696Z,17.1
2017-04-15T06:36:10.115Z,17.3
2017-04-15T06:37:12.090Z,17.9
2017-04-15T06:38:13.904Z,17
2017-04-15T06:39:16.526Z,17.4
2017-04-15T06:40:18.354Z,17
2017-04-15T06:41:20.492Z,17.4
2017-04-15T06:42:22.645Z,17.3
2017-04-15T06:43:26.924Z,17.4
2017-04-15T06:44:29.081Z,17
2017-04-15T06:45:30.903Z,17.5
2017-04-15T06:46:32.705Z,17
2017-04-15T06:47:34.521Z,16.8
2017-04-15T06:48:36.671Z,16.9
2017-04-15T06:49:38.824Z,16.6
2017-04-15T06:50:41.021Z,17.2
2017-04-15T06:51:42.840Z,18.1
2017-04-15T06:52:45.262Z,17.1
2017-04-15T06:53:47.433Z,17.3
2017-04-15T06:54:49.329Z,17.3
2017-04-15T06:55:51.145Z,17.6
2017-04-15T06:56:53.190Z,16.2
2017-04-15T06:57:55.008Z,17.2
2017-04-15T06:58:57.480Z,17
2017-04-15T06:59:59.297Z,17.2
2017-04-15T07:01:01.333Z,17
2017-04-15T07:02:03.232Z,17.8
2017-04-15T07:03:05.371Z,17.3
2017-04-15T07:04:07.191Z,17.8
2017-04-15T07:05:09.045Z,16.8
2017-04-15T07:06:10.861Z,16.9
2017-04-15T07:07:12.672Z,17.4
2017-04-15T07:08:14.488Z,17.2
2017-04-15T07:09:16.687Z,16.6
2017-04-15T07:10:19.062Z,16.6
2017-04-15T07:11:21.106Z,17.1
2017-04-15T07:12:22.919Z,17.2
2017-04-15T07:13:24.734Z,17.1
2017-04-15T07:14:26.557Z,17.3
2017-04-15T07:15:28.704Z,17.3
2017-04-15T07:16:30.514Z,17.7
2017-04-15T07:17:32.324Z,16.8
2017-04-15T07:18:34.493Z,18
2017-04-15T07:19:36.584Z,17.5
2017-04-15T07:20:38.405Z,18.2
2017-04-15T07:21:40.830Z,17.5
2017-04-15T07:22:42.654Z,17.7
2017-04-15T07:23:44.818Z,17.6
2017-04-15T07:24:46.991Z,17.3
2017-04-15T07:25:49.146Z,17.5
2017-04-15T07:26:50.971Z,16.6
2017-04-15T07:27:53.120Z,17.7
2017-04-15T07:28:54.932Z,18
2017-04-15T07:29:56.748Z,17.3
2017-04-15T07:30:58.847Z,18.2
2017-04-15T07:32:00.723Z,17.3
2017-04-15T07:33:02.536Z,17.4
2017-04-15T07:34:04.383Z,17.5
2017-04-15T07:35:06.208Z,18.1
2017-04-15T07:36:08.378Z,17.6
2017-04-15T07:37:11.748Z,17.5
2017-04-15T07:38:13.909Z,17.5
2017-04-15T07:39:16.333Z,17.5
2017-04-15T07:40:18.449Z,17.9
2017-04-15T07:41:20.624Z,17.7
2017-04-15T07:42:22.910Z,18.8
2017-04-15T07:43:24.722Z,18.2
2017-04-15T07:44:27.539Z,18
2017-04-15T07:45:30.333Z,18.8
2017-04-15T07:46:34.680Z,18.4
2017-04-15T07:47:36.844Z,17.8
2017-04-15T07:48:39.004Z,17.7
2017-04-15T07:49:41.200Z,17.7
2017-04-15T07:50:43.255Z,17.5
2017-04-15T07:51:45.082Z,18
2017-04-15T07:52:47.235Z,18.1
2017-04-15T07:53:49.393Z,17.8
2017-04-15T07:54:51.554Z,17.7
2017-04-15T07:55:53.775Z,18.6
2017-04-15T07:56:55.772Z,18.4
2017-04-15T07:57:58.698Z,18.1
2017-04-15T07:59:01.955Z,18
2017-04-15T08:00:04.129Z,17.9
2017-04-15T08:01:05.961Z,18.3
2017-04-15T08:02:07.780Z,18.1
2017-04-15T08:03:09.671Z,18.6
2017-04-15T08:04:11.540Z,19.3
2017-04-15T08:05:13.381Z,18.4
2017-04-15T08:06:15.200Z,18.1
2017-04-15T08:06:39.436Z,23.3
2017-04-15T08:07:41.900Z,17
2017-04-15T08:08:44.072Z,18.4
2017-04-15T08:09:46.239Z,17.4
2017-04-15T08:10:48.073Z,17.2
2017-04-15T08:11:49.902Z,17.9
2017-04-15T08:12:52.204Z,17.4
2017-04-15T08:13:54.433Z,17.8
2017-04-15T08:14:56.246Z,18.9
2017-04-15T08:15:58.062Z,18
2017-04-15T08:16:59.881Z,18.5
2017-04-15T08:18:01.703Z,17.9
2017-04-15T08:19:04.200Z,17.9
2017-04-15T08:20:06.035Z,18.1
2017-04-15T08:21:08.182Z,17.8
2017-04-15T08:22:09.995Z,18.1
2017-04-15T08:23:11.963Z,18.3
2017-04-15T08:24:14.859Z,18.3
2017-04-15T08:25:16.674Z,18.4
2017-04-15T08:26:18.486Z,19
2017-04-15T08:27:20.298Z,19
2017-04-15T08:28:22.247Z,18.4
2017-04-15T08:29:24.054Z,18.1
2017-04-15T08:30:25.869Z,17.7
2017-04-15T08:31:28.018Z,18.4
2017-04-15T08:32:30.171Z,18.5
2017-04-15T08:33:31.986Z,18.4
2017-04-15T08:34:34.059Z,18
2017-04-15T08:35:36.126Z,18.5
2017-04-15T08:36:38.289Z,18.6
2017-04-15T08:37:40.738Z,18.9
2017-04-15T08:38:42.551Z,18.5
2017-04-15T08:39:44.367Z,18.5
2017-04-15T08:40:46.185Z,18.9
2017-04-15T08:41:48.340Z,18.8
2017-04-15T08:42:50.146Z,18.6
2017-04-15T08:43:51.967Z,18.1
2017-04-15T08:44:53.778Z,18.4
2017-04-15T08:45:55.607Z,18.7
2017-04-15T08:46:57.762Z,18.1
2017-04-15T08:47:59.920Z,18.2
2017-04-15T08:49:01.899Z,18.6
2017-04-15T08:50:03.723Z,18.3
2017-04-15T08:51:05.883Z,18.5
2017-04-15T08:52:07.700Z,17.9
2017-04-15T08:53:09.521Z,17.8
2017-04-15T08:54:11.351Z,18.2
2017-04-15T08:55:13.518Z,18.5
2017-04-15T08:56:15.687Z,18.4
2017-04-15T08:57:18.181Z,18.3
2017-04-15T08:58:20.004Z,18.7
2017-04-15T08:59:21.822Z,18.7
2017-04-15T09:00:23.644Z,18.1
2017-04-15T09:01:25.467Z,18.9
2017-04-15T09:02:27.276Z,18.7
2017-04-15T09:03:29.093Z,18.7
2017-04-15T09:04:30.910Z,19.2
2017-04-15T09:05:32.736Z,19.2
2017-04-15T09:06:34.550Z,18.4
2017-04-15T09:07:36.478Z,18.4
2017-04-15T09:08:38.673Z,18.1
2017-04-15T09:09:40.713Z,18.4
2017-04-15T09:10:42.881Z,17.8
2017-04-15T09:11:44.707Z,17.9
2017-04-15T09:12:46.520Z,17.9
2017-04-15T09:13:48.687Z,18.4
2017-04-15T09:14:50.852Z,19.1
2017-04-15T09:15:52.660Z,18.7
2017-04-15T09:16:54.470Z,18.6
2017-04-15T09:17:56.630Z,19
2017-04-15T09:18:58.447Z,18.6
2017-04-15T09:20:00.473Z,19.2
2017-04-15T09:21:02.484Z,19.2
2017-04-15T09:22:04.303Z,19.6
2017-04-15T09:23:06.716Z,19.3
2017-04-15T09:24:08.522Z,19.7
2017-04-15T09:25:10.340Z,19.7
2017-04-15T09:26:12.151Z,18.7
2017-04-15T09:27:13.989Z,17.7
2017-04-15T09:28:15.796Z,18.4
2017-04-15T17:16:27.519Z,10.4
2017-04-15T17:17:30.130Z,10.4
2017-04-15T17:18:32.963Z,11.5
2017-04-15T17:19:34.782Z,11.7
2017-04-15T17:20:37.000Z,11.8
2017-04-15T17:21:39.226Z,11.4
2017-04-15T17:22:41.037Z,11.4
2017-04-15T17:23:42.845Z,11.3
2017-04-15T17:24:44.905Z,11.5
2017-04-15T17:25:46.724Z,11.4
2017-04-15T17:26:48.533Z,11.4
2017-04-15T17:27:50.360Z,11.2
2017-04-15T17:28:52.363Z,11.4
2017-04-15T17:29:54.243Z,11.4
2017-04-15T17:30:56.054Z,11.6
2017-04-15T17:31:57.868Z,11.2
2017-04-15T17:33:00.028Z,11.1
2017-04-15T17:34:01.851Z,11.1
2017-04-15T17:35:03.669Z,11.2
2017-04-15T17:36:05.669Z,11.2
2017-04-15T17:37:07.483Z,11.3
2017-04-15T17:38:09.300Z,11.2
2017-04-15T17:39:11.351Z,11.2
2017-04-15T17:40:13.424Z,11.3
2017-04-15T17:41:15.236Z,11
2017-04-15T17:42:17.063Z,11.1
2017-04-15T17:43:18.891Z,11.2
2017-04-15T17:44:21.055Z,11.2
2017-04-15T17:45:22.978Z,11.2
2017-04-15T17:46:24.857Z,11.2
2017-04-15T17:47:26.677Z,11.3
2017-04-15T17:48:28.574Z,11
2017-04-15T17:49:30.450Z,10.9
2017-04-15T17:50:32.267Z,11
2017-04-15T17:51:34.181Z,10.8
2017-04-15T17:52:36.418Z,10.9
2017-04-15T17:53:38.239Z,11.1
2017-04-15T17:54:40.056Z,10.9
2017-04-15T17:55:41.887Z,10.9
2017-04-15T17:56:43.700Z,10.9
2017-04-15T17:57:45.510Z,10.7
2017-04-15T17:58:47.665Z,10.7
2017-04-15T17:59:49.479Z,10.8
2017-04-15T18:00:51.311Z,11
2017-04-15T18:01:53.614Z,10.8
2017-04-15T18:02:55.444Z,10.7
2017-04-15T18:03:57.295Z,10.6
2017-04-15T18:04:59.151Z,10.6
2017-04-15T18:06:01.040Z,11
2017-04-15T18:07:02.856Z,10.9
2017-04-15T18:08:05.017Z,10.9
2017-04-15T18:09:07.181Z,10.6
2017-04-15T18:10:08.999Z,10.5
2017-04-15T18:11:10.827Z,10.6
2017-04-15T18:12:31.558Z,10.6
2017-04-15T18:13:33.380Z,10.6
2017-04-15T18:14:35.206Z,10.8
2017-04-15T18:15:37.366Z,10.6
2017-04-15T18:16:39.192Z,10.6
2017-04-15T18:17:41.347Z,10.7
2017-04-15T18:18:43.158Z,10.6
2017-04-15T18:19:45.665Z,10.7
2017-04-15T18:20:47.485Z,10.3
2017-04-15T18:21:49.626Z,10.3
2017-04-15T18:22:51.439Z,10.6
2017-04-15T18:23:53.331Z,10.6
2017-04-15T18:24:55.211Z,10.3
2017-04-15T18:25:57.016Z,10.3
2017-04-15T18:26:58.910Z,10.2
2017-04-15T18:28:01.081Z,10.2
2017-04-15T18:29:03.239Z,10.2
2017-04-15T18:30:05.057Z,10.3
2017-04-15T18:31:07.212Z,10.3
2017-04-15T18:32:09.037Z,10
2017-04-15T18:33:10.864Z,10.2
2017-04-15T18:34:12.980Z,10.2
2017-04-15T18:35:14.801Z,10.1
2017-04-15T18:36:16.617Z,10
2017-04-15T18:37:18.806Z,9.8
2017-04-15T18:38:20.683Z,9.8
2017-04-15T18:39:22.578Z,10.1
2017-04-15T18:40:24.387Z,10
2017-04-15T18:41:26.196Z,10
2017-04-15T18:42:28.017Z,10.1
2017-04-15T18:43:29.830Z,10.1
2017-04-15T18:44:31.987Z,10.1
2017-04-15T18:45:33.790Z,10
2017-04-15T18:46:35.611Z,10.1
2017-04-15T18:47:37.434Z,10.2
2017-04-15T18:48:39.259Z,9.8
2017-04-15T18:49:41.382Z,10
2017-04-15T18:50:43.198Z,10
2017-04-15T18:51:45.017Z,9.9
2017-04-15T18:52:47.239Z,9.9
2017-04-15T18:53:49.071Z,10.2
2017-04-15T18:54:50.884Z,10.2
2017-04-15T18:55:52.705Z,9.8
2017-04-15T18:56:54.706Z,10
2017-04-15T18:57:56.517Z,10
2017-04-15T18:58:58.326Z,10.2
2017-04-15T19:00:00.155Z,10.2
2017-04-15T19:01:01.970Z,10.2
2017-04-15T19:02:03.810Z,10.4
2017-04-15T19:03:05.643Z,10
2017-04-15T19:04:07.464Z,10
2017-04-15T19:05:09.271Z,10
2017-04-15T19:06:11.089Z,9.8
2017-04-15T19:07:12.893Z,9.8
2017-04-15T19:08:14.971Z,10.1
2017-04-15T19:09:16.791Z,10
2017-04-15T19:10:18.613Z,9.9
2017-04-15T19:11:20.563Z,9.9
2017-04-15T19:12:22.380Z,10
2017-04-15T19:13:24.532Z,9.9
2017-04-15T19:14:26.350Z,10
2017-04-15T19:15:28.172Z,10.1
2017-04-15T19:16:29.995Z,9.5
2017-04-15T19:17:31.810Z,9.4
2017-04-15T19:18:34.330Z,9.7
2017-04-15T19:19:36.141Z,9.7
2017-04-15T19:20:37.965Z,9.8
2017-04-15T19:21:40.115Z,10
2017-04-15T19:22:41.919Z,10
2017-04-15T19:24:30.302Z,9.8
2017-04-15T19:25:32.537Z,9.9
2017-04-15T19:26:34.351Z,9.5
2017-04-15T19:27:36.152Z,9.7
2017-04-15T19:28:38.011Z,9.9
2017-04-15T19:29:40.341Z,9.8
2017-04-15T19:30:42.160Z,9.5
2017-04-15T19:31:43.974Z,9.6
2017-04-15T19:32:45.801Z,8.9
2017-04-15T19:33:48.039Z,8.9
2017-04-15T19:34:49.851Z,8.8
2017-04-15T19:35:51.695Z,8.6
2017-04-15T19:36:53.507Z,8.8
2017-04-15T19:37:55.732Z,8.8
2017-04-15T19:38:57.870Z,8.2
2017-04-15T19:39:59.698Z,8.5
2017-04-15T19:41:01.686Z,8.4
2017-04-15T19:42:03.562Z,8
2017-04-15T19:43:05.381Z,8.3
2017-04-15T19:44:07.202Z,8.5
2017-04-15T19:45:09.370Z,8.4
2017-04-15T19:46:11.957Z,8.4
2017-04-15T19:47:13.761Z,8.2
2017-04-15T19:48:15.913Z,8.1
2017-04-15T19:49:17.743Z,8.1
2017-04-15T19:50:19.642Z,8
2017-04-15T19:51:21.851Z,7.7
2017-04-15T19:52:23.927Z,8
2017-04-15T19:53:25.748Z,8
2017-04-15T19:54:27.579Z,7.7
2017-04-15T19:55:29.402Z,8
2017-04-15T19:56:31.718Z,7.9
2017-04-15T19:57:33.596Z,7.9
2017-04-15T19:58:35.420Z,7.7
2017-04-15T19:59:37.261Z,7.8
2017-04-15T20:00:39.262Z,7.7
2017-04-15T20:01:41.128Z,7.9
2017-04-15T20:02:42.944Z,7.9
2017-04-15T20:03:44.800Z,7.6
2017-04-15T20:04:46.604Z,7.7
2017-04-15T20:05:48.437Z,7.6
2017-04-15T20:06:50.459Z,7.8
2017-04-15T20:07:52.285Z,7.5
2017-04-15T20:08:54.420Z,7.6
2017-04-15T20:09:56.260Z,7.3
2017-04-15T20:10:58.088Z,7.4
2017-04-15T20:11:59.907Z,7.6
2017-04-15T20:13:01.727Z,7.8
2017-04-15T20:14:03.544Z,7.4
2017-04-15T20:15:05.366Z,7.7
2017-04-15T20:16:07.524Z,7.3
2017-04-15T20:17:09.357Z,7.5
2017-04-15T20:18:11.463Z,7.4
2017-04-15T20:19:13.286Z,7.5
2017-04-15T20:20:15.427Z,7.4
2017-04-15T20:21:17.309Z,7.5
2017-04-15T20:22:19.140Z,7.4
2017-04-15T20:23:21.460Z,7.4
2017-04-15T20:24:23.610Z,7.7
2017-04-15T20:25:25.773Z,7.4
2017-04-15T20:26:27.647Z,7.5
2017-04-15T20:27:29.711Z,7.7
2017-04-15T20:28:31.797Z,7.6
2017-04-15T20:29:33.622Z,7.5
2017-04-15T20:30:35.802Z,7.7
2017-04-15T20:31:37.652Z,7.3
2017-04-15T20:32:39.463Z,7.2
2017-04-15T20:33:41.614Z,7.5
2017-04-15T20:34:43.445Z,7.6
2017-04-15T20:35:45.291Z,7.6
2017-04-15T20:36:47.113Z,7.8
2017-04-15T20:37:49.298Z,7.5
2017-04-15T20:38:51.455Z,8
2017-04-15T20:39:53.600Z,7.9
2017-04-15T20:40:55.408Z,7.7
2017-04-15T20:41:57.550Z,7.4
2017-04-15T20:42:59.692Z,7.8
2017-04-15T20:44:01.835Z,7.6
2017-04-15T20:45:03.843Z,7.3
2017-04-15T20:46:05.660Z,7.7
2017-04-15T20:47:07.462Z,7.2
2017-04-15T20:48:09.275Z,7.6
2017-04-15T20:49:11.084Z,7.8
2017-04-15T20:50:13.073Z,7.5
2017-04-15T20:51:15.229Z,7.5
2017-04-15T20:52:17.373Z,7.4
2017-04-15T20:53:19.208Z,7.5
2017-04-15T20:54:21.013Z,7.5
2017-04-15T20:55:23.386Z,7.7
2017-04-15T20:56:25.362Z,7.7
2017-04-15T20:57:27.377Z,7.6
2017-04-15T20:58:29.529Z,7.4
2017-04-15T20:59:31.336Z,7.8
2017-04-15T21:00:33.146Z,7.7
2017-04-15T21:01:34.955Z,7.6
2017-04-15T21:02:37.129Z,7.6
2017-04-15T21:03:39.627Z,7.6
2017-04-15T21:04:41.773Z,7.8
2017-04-15T21:05:43.588Z,7.9
2017-04-15T21:06:45.382Z,7.6
2017-04-15T21:07:47.206Z,7.5
2017-04-15T21:08:49.152Z,7.9
2017-04-15T21:09:51.358Z,7.7
2017-04-15T21:10:53.173Z,7.6
2017-04-15T21:11:55.005Z,7.8
2017-04-15T21:12:57.162Z,7.8
2017-04-15T21:13:58.986Z,7.6
2017-04-15T21:15:00.954Z,7.4
2017-04-15T21:16:03.171Z,7.6
2017-04-15T21:17:05.294Z,7.4
2017-04-15T21:18:07.109Z,7.7
2017-04-15T21:19:09.598Z,7.6
2017-04-15T21:20:11.415Z,7.3
2017-04-15T21:21:13.242Z,7.4
2017-04-15T21:22:15.047Z,7.7
2017-04-15T21:23:17.191Z,7.6
2017-04-15T21:24:19.340Z,7.6
2017-04-15T21:25:21.157Z,7.4
2017-04-15T21:26:22.983Z,7.1
2017-04-15T21:27:24.860Z,7.2
2017-04-15T21:28:27.033Z,7.2
2017-04-15T21:29:29.757Z,7.3
2017-04-15T21:30:31.575Z,7.4
2017-04-15T21:31:33.381Z,7.3
2017-04-15T21:32:35.366Z,7.2
2017-04-15T21:33:37.523Z,7.2
2017-04-15T21:34:39.354Z,7.2
2017-04-15T21:35:41.759Z,7.2
2017-04-15T21:36:43.572Z,7.4
2017-04-15T21:37:45.378Z,7.3
2017-04-15T21:38:47.311Z,7.3
2017-04-15T21:39:49.138Z,7.2
2017-04-15T21:40:51.089Z,7.1
2017-04-15T21:41:53.083Z,7.3
2017-04-15T21:42:55.395Z,7
2017-04-15T21:43:58.712Z,7.1
2017-04-15T21:45:00.538Z,7.1
2017-04-15T21:46:02.780Z,7